sensor_id;sensor_type;location;lat;lon;timestamp;temperature;humidity
19868;DHT22;10096;51.112;6.776;2022-08-01T00:02:13;22.20;1.00
19868;DHT22;10096;51.112;6.776;2022-08-01T00:04:40;22.10;1.00
19868;DHT22;10096;51.112;6.776;2022-08-01T00:07:07;22.20;1.00
19868;DHT22;10096;51.112;6.776;2022-08-01T00:09:34;22.40;1.00
19868;DHT22;10096;51.112;6.776;2022-08-01T00:12:01;22.20;1.00
19868;DHT22;10096;51.112;6.776;2022-08-01T00:14:28;22.30;1.00
19868;DHT22;10096;51.112;6.776;2022-08-01T00:16:56;22.20;1.00
19868;DHT22;10096;51.112;6.776;2022-08-01T00:19:23;22.20;1.00
19868;DHT22;10096;51.112;6.776;2022-08-01T00:21:50;22.40;1.00
19868;DHT22;10096;51.112;6.776;2022-08-01T00:24:17;22.20;1.00
19868;DHT22;10096;51.112;6.776;2022-08-01T00:26:44;22.20;1.00
19868;DHT22;10096;51.112;6.776;2022-08-01T00:29:11;22.30;1.00
19868;DHT22;10096;51.112;6.776;2022-08-01T00:31:38;22.20;1.00
19868;DHT22;10096;51.112;6.776;2022-08-01T00:34:07;22.20;1.00
19868;DHT22;10096;51.112;6.776;2022-08-01T00:36:34;22.10;1.00
19868;DHT22;10096;51.112;6.776;2022-08-01T00:39:01;22.10;1.00
19868;DHT22;10096;51.112;6.776;2022-08-01T00:41:28;22.20;1.00
19868;DHT22;10096;51.112;6.776;2022-08-01T00:43:54;22.40;1.00
19868;DHT22;10096;51.112;6.776;2022-08-01T00:46:22;22.40;1.00
19868;DHT22;10096;51.112;6.776;2022-08-01T00:48:49;22.10;1.00
19868;DHT22;10096;51.112;6.776;2022-08-01T00:51:17;22.00;1.00
19868;DHT22;10096;51.112;6.776;2022-08-01T00:53:44;22.00;1.00
19868;DHT22;10096;51.112;6.776;2022-08-01T00:56:11;22.00;1.00
19868;DHT22;10096;51.112;6.776;2022-08-01T00:58:38;22.00;1.00
19868;DHT22;10096;51.112;6.776;2022-08-01T01:01:06;22.10;1.00
19868;DHT22;10096;51.112;6.776;2022-08-01T01:03:33;22.00;1.00
19868;DHT22;10096;51.112;6.776;2022-08-01T01:06:07;22.10;1.00
19868;DHT22;10096;51.112;6.776;2022-08-01T01:08:42;22.00;1.00
19868;DHT22;10096;51.112;6.776;2022-08-01T01:11:15;22.00;1.00
19868;DHT22;10096;51.112;6.776;2022-08-01T01:13:48;22.00;1.00
19868;DHT22;10096;51.112;6.776;2022-08-01T01:16:18;22.00;99.90
19868;DHT22;10096;51.112;6.776;2022-08-01T01:18:47;21.90;1.00
19868;DHT22;10096;51.112;6.776;2022-08-01T01:21:35;21.90;1.00
19868;DHT22;10096;51.112;6.776;2022-08-01T01:24:21;21.90;1.00
19868;DHT22;10096;51.112;6.776;2022-08-01T01:26:59;21.80;1.00
19868;DHT22;10096;51.112;6.776;2022-08-01T01:29:32;22.00;1.00
19868;DHT22;10096;51.112;6.776;2022-08-01T01:32:05;21.80;1.00
19868;DHT22;10096;51.112;6.776;2022-08-01T01:34:37;21.70;1.00
19868;DHT22;10096;51.112;6.776;2022-08-01T01:37:07;21.80;1.00
19868;DHT22;10096;51.112;6.776;2022-08-01T01:39:36;21.80;1.00
19868;DHT22;10096;51.112;6.776;2022-08-01T01:42:05;21.60;1.00
19868;DHT22;10096;51.112;6.776;2022-08-01T01:44:36;21.70;1.00
19868;DHT22;10096;51.112;6.776;2022-08-01T01:47:04;21.90;1.00
19868;DHT22;10096;51.112;6.776;2022-08-01T01:49:33;21.70;1.00
19868;DHT22;10096;51.112;6.776;2022-08-01T01:52:01;21.60;1.00
19868;DHT22;10096;51.112;6.776;2022-08-01T01:54:33;21.60;1.00
19868;DHT22;10096;51.112;6.776;2022-08-01T01:57:03;21.70;1.00
19868;DHT22;10096;51.112;6.776;2022-08-01T01:59:34;21.70;1.00
19868;DHT22;10096;51.112;6.776;2022-08-01T02:02:04;21.70;1.00
19868;DHT22;10096;51.112;6.776;2022-08-01T02:04:32;21.70;99.90
19868;DHT22;10096;51.112;6.776;2022-08-01T02:07:00;21.60;1.00
19868;DHT22;10096;51.112;6.776;2022-08-01T02:09:28;21.70;1.00
19868;DHT22;10096;51.112;6.776;2022-08-01T02:11:58;21.70;1.00
19868;DHT22;10096;51.112;6.776;2022-08-01T02:14:26;21.70;1.00
19868;DHT22;10096;51.112;6.776;2022-08-01T02:16:57;21.80;1.00
19868;DHT22;10096;51.112;6.776;2022-08-01T02:19:29;21.50;1.00
19868;DHT22;10096;51.112;6.776;2022-08-01T02:22:00;21.60;1.00
19868;DHT22;10096;51.112;6.776;2022-08-01T02:24:34;21.80;1.00
19868;DHT22;10096;51.112;6.776;2022-08-01T02:27:08;21.50;1.00
19868;DHT22;10096;51.112;6.776;2022-08-01T02:29:39;21.60;1.00
19868;DHT22;10096;51.112;6.776;2022-08-01T02:32:13;21.60;1.00
19868;DHT22;10096;51.112;6.776;2022-08-01T02:34:41;21.50;1.00
19868;DHT22;10096;51.112;6.776;2022-08-01T02:37:12;21.80;1.00
19868;DHT22;10096;51.112;6.776;2022-08-01T02:39:40;21.70;1.00
19868;DHT22;10096;51.112;6.776;2022-08-01T02:42:08;21.60;1.00
19868;DHT22;10096;51.112;6.776;2022-08-01T02:44:39;21.60;1.00
19868;DHT22;10096;51.112;6.776;2022-08-01T02:47:08;21.60;1.00
19868;DHT22;10096;51.112;6.776;2022-08-01T02:49:39;21.70;1.00
19868;DHT22;10096;51.112;6.776;2022-08-01T02:52:11;21.50;1.00
19868;DHT22;10096;51.112;6.776;2022-08-01T02:54:40;21.70;1.00
19868;DHT22;10096;51.112;6.776;2022-08-01T02:57:09;21.70;1.00
19868;DHT22;10096;51.112;6.776;2022-08-01T02:59:37;21.50;1.00
19868;DHT22;10096;51.112;6.776;2022-08-01T03:02:06;21.40;1.00
19868;DHT22;10096;51.112;6.776;2022-08-01T03:04:34;21.60;1.00
19868;DHT22;10096;51.112;6.776;2022-08-01T03:07:04;21.50;1.00
19868;DHT22;10096;51.112;6.776;2022-08-01T03:09:36;21.50;1.00
19868;DHT22;10096;51.112;6.776;2022-08-01T03:12:07;21.60;1.00
19868;DHT22;10096;51.112;6.776;2022-08-01T03:14:38;21.50;1.00
19868;DHT22;10096;51.112;6.776;2022-08-01T03:17:06;21.50;1.00
19868;DHT22;10096;51.112;6.776;2022-08-01T03:19:35;21.60;1.00
19868;DHT22;10096;51.112;6.776;2022-08-01T03:22:07;21.60;1.00
19868;DHT22;10096;51.112;6.776;2022-08-01T03:24:36;21.60;1.00
19868;DHT22;10096;51.112;6.776;2022-08-01T03:27:04;21.60;1.00
19868;DHT22;10096;51.112;6.776;2022-08-01T03:29:32;21.60;1.00
19868;DHT22;10096;51.112;6.776;2022-08-01T03:32:00;21.70;1.00
19868;DHT22;10096;51.112;6.776;2022-08-01T03:34:29;21.80;1.00
19868;DHT22;10096;51.112;6.776;2022-08-01T03:37:01;21.70;1.00
19868;DHT22;10096;51.112;6.776;2022-08-01T03:39:34;22.10;1.00
19868;DHT22;10096;51.112;6.776;2022-08-01T03:42:09;22.00;99.90
19868;DHT22;10096;51.112;6.776;2022-08-01T03:44:39;21.70;1.00
19868;DHT22;10096;51.112;6.776;2022-08-01T03:47:08;21.70;1.00
19868;DHT22;10096;51.112;6.776;2022-08-01T03:49:42;21.70;1.00
19868;DHT22;10096;51.112;6.776;2022-08-01T03:52:10;21.80;99.90
19868;DHT22;10096;51.112;6.776;2022-08-01T03:54:42;21.80;99.90
19868;DHT22;10096;51.112;6.776;2022-08-01T03:57:11;21.90;99.90
19868;DHT22;10096;51.112;6.776;2022-08-01T03:59:39;22.00;99.90
19868;DHT22;10096;51.112;6.776;2022-08-01T04:02:07;21.90;99.90
19868;DHT22;10096;51.112;6.776;2022-08-01T04:04:35;21.80;99.90
19868;DHT22;10096;51.112;6.776;2022-08-01T04:07:02;21.60;99.90
19868;DHT22;10096;51.112;6.776;2022-08-01T04:09:32;21.80;1.00
19868;DHT22;10096;51.112;6.776;2022-08-01T04:12:00;21.70;1.00
19868;DHT22;10096;51.112;6.776;2022-08-01T04:14:28;21.70;1.00
19868;DHT22;10096;51.112;6.776;2022-08-01T04:16:55;21.90;1.00
19868;DHT22;10096;51.112;6.776;2022-08-01T04:19:23;21.70;1.00
19868;DHT22;10096;51.112;6.776;2022-08-01T04:21:51;22.00;1.00
19868;DHT22;10096;51.112;6.776;2022-08-01T04:24:19;21.70;1.00
19868;DHT22;10096;51.112;6.776;2022-08-01T04:26:47;21.90;1.00
19868;DHT22;10096;51.112;6.776;2022-08-01T04:29:17;21.70;1.00
19868;DHT22;10096;51.112;6.776;2022-08-01T04:31:48;21.80;1.00
19868;DHT22;10096;51.112;6.776;2022-08-01T04:34:17;21.90;1.00
19868;DHT22;10096;51.112;6.776;2022-08-01T04:36:47;22.00;1.00
19868;DHT22;10096;51.112;6.776;2022-08-01T04:39:16;21.70;1.00
19868;DHT22;10096;51.112;6.776;2022-08-01T04:41:46;21.70;1.00
19868;DHT22;10096;51.112;6.776;2022-08-01T04:44:13;21.70;1.00
19868;DHT22;10096;51.112;6.776;2022-08-01T04:46:43;21.70;1.00
19868;DHT22;10096;51.112;6.776;2022-08-01T04:49:11;21.80;1.00
19868;DHT22;10096;51.112;6.776;2022-08-01T04:51:49;21.80;1.00
19868;DHT22;10096;51.112;6.776;2022-08-01T04:54:17;21.90;1.00
19868;DHT22;10096;51.112;6.776;2022-08-01T04:56:46;22.00;99.90
19868;DHT22;10096;51.112;6.776;2022-08-01T04:59:16;22.00;1.00
19868;DHT22;10096;51.112;6.776;2022-08-01T05:02:02;22.00;1.00
19868;DHT22;10096;51.112;6.776;2022-08-01T05:04:30;22.10;1.00
19868;DHT22;10096;51.112;6.776;2022-08-01T05:06:57;21.90;1.00
19868;DHT22;10096;51.112;6.776;2022-08-01T05:09:25;21.90;1.00
19868;DHT22;10096;51.112;6.776;2022-08-01T05:11:52;21.90;1.00
19868;DHT22;10096;51.112;6.776;2022-08-01T05:14:19;21.90;1.00
19868;DHT22;10096;51.112;6.776;2022-08-01T05:16:46;22.20;1.00
19868;DHT22;10096;51.112;6.776;2022-08-01T05:19:14;22.00;99.90
19868;DHT22;10096;51.112;6.776;2022-08-01T05:21:42;22.00;99.90
19868;DHT22;10096;51.112;6.776;2022-08-01T05:24:10;22.20;1.00
19868;DHT22;10096;51.112;6.776;2022-08-01T05:26:38;21.80;99.90
19868;DHT22;10096;51.112;6.776;2022-08-01T05:29:05;22.00;99.90
19868;DHT22;10096;51.112;6.776;2022-08-01T05:31:34;22.00;99.90
19868;DHT22;10096;51.112;6.776;2022-08-01T05:34:01;22.10;99.90
19868;DHT22;10096;51.112;6.776;2022-08-01T05:36:29;22.00;99.90
19868;DHT22;10096;51.112;6.776;2022-08-01T05:38:56;22.40;99.90
19868;DHT22;10096;51.112;6.776;2022-08-01T05:41:25;22.10;99.90
19868;DHT22;10096;51.112;6.776;2022-08-01T05:43:53;22.50;99.90
19868;DHT22;10096;51.112;6.776;2022-08-01T05:46:19;22.20;99.90
19868;DHT22;10096;51.112;6.776;2022-08-01T05:48:46;22.20;99.90
19868;DHT22;10096;51.112;6.776;2022-08-01T05:51:13;22.30;99.90
19868;DHT22;10096;51.112;6.776;2022-08-01T05:53:42;22.30;99.90
19868;DHT22;10096;51.112;6.776;2022-08-01T05:56:09;22.30;99.90
19868;DHT22;10096;51.112;6.776;2022-08-01T05:58:36;22.40;99.90
19868;DHT22;10096;51.112;6.776;2022-08-01T06:01:03;22.60;99.90
19868;DHT22;10096;51.112;6.776;2022-08-01T06:03:30;22.50;99.90
19868;DHT22;10096;51.112;6.776;2022-08-01T06:05:59;22.90;99.90
19868;DHT22;10096;51.112;6.776;2022-08-01T06:08:27;22.80;99.90
19868;DHT22;10096;51.112;6.776;2022-08-01T06:10:55;22.90;99.90
19868;DHT22;10096;51.112;6.776;2022-08-01T06:13:22;23.20;99.90
19868;DHT22;10096;51.112;6.776;2022-08-01T06:15:49;23.30;99.90
19868;DHT22;10096;51.112;6.776;2022-08-01T06:18:17;23.60;99.90
19868;DHT22;10096;51.112;6.776;2022-08-01T06:20:44;23.90;80.60
19868;DHT22;10096;51.112;6.776;2022-08-01T06:23:11;24.10;19.20
19868;DHT22;10096;51.112;6.776;2022-08-01T06:25:38;24.30;1.00
19868;DHT22;10096;51.112;6.776;2022-08-01T06:28:07;24.50;1.00
19868;DHT22;10096;51.112;6.776;2022-08-01T06:30:33;25.00;1.00
19868;DHT22;10096;51.112;6.776;2022-08-01T06:33:02;25.10;1.00
19868;DHT22;10096;51.112;6.776;2022-08-01T06:35:28;24.80;1.00
19868;DHT22;10096;51.112;6.776;2022-08-01T06:37:56;24.80;1.00
19868;DHT22;10096;51.112;6.776;2022-08-01T06:40:23;24.60;1.00
19868;DHT22;10096;51.112;6.776;2022-08-01T06:42:50;24.40;1.00
19868;DHT22;10096;51.112;6.776;2022-08-01T06:45:19;24.20;1.00
19868;DHT22;10096;51.112;6.776;2022-08-01T06:47:48;24.30;1.00
19868;DHT22;10096;51.112;6.776;2022-08-01T06:50:15;24.20;1.00
19868;DHT22;10096;51.112;6.776;2022-08-01T06:52:42;24.50;1.00
19868;DHT22;10096;51.112;6.776;2022-08-01T06:55:09;24.10;1.00
19868;DHT22;10096;51.112;6.776;2022-08-01T06:57:36;24.10;1.00
19868;DHT22;10096;51.112;6.776;2022-08-01T07:00:04;24.10;1.00
19868;DHT22;10096;51.112;6.776;2022-08-01T07:02:34;24.30;1.00
19868;DHT22;10096;51.112;6.776;2022-08-01T07:05:02;24.30;1.00
19868;DHT22;10096;51.112;6.776;2022-08-01T07:07:29;24.30;1.00
19868;DHT22;10096;51.112;6.776;2022-08-01T07:09:56;23.90;1.00
19868;DHT22;10096;51.112;6.776;2022-08-01T07:12:25;23.90;1.00
19868;DHT22;10096;51.112;6.776;2022-08-01T07:14:52;24.30;1.00
19868;DHT22;10096;51.112;6.776;2022-08-01T07:17:18;24.40;1.00
19868;DHT22;10096;51.112;6.776;2022-08-01T07:19:47;24.90;1.00
19868;DHT22;10096;51.112;6.776;2022-08-01T07:22:14;25.10;1.00
19868;DHT22;10096;51.112;6.776;2022-08-01T07:24:42;25.00;1.00
19868;DHT22;10096;51.112;6.776;2022-08-01T07:27:08;25.70;1.00
19868;DHT22;10096;51.112;6.776;2022-08-01T07:29:36;26.90;1.00
19868;DHT22;10096;51.112;6.776;2022-08-01T07:32:06;27.00;99.90
19868;DHT22;10096;51.112;6.776;2022-08-01T07:34:33;26.60;99.90
19868;DHT22;10096;51.112;6.776;2022-08-01T07:37:02;26.30;1.00
19868;DHT22;10096;51.112;6.776;2022-08-01T07:39:29;26.70;99.90
19868;DHT22;10096;51.112;6.776;2022-08-01T07:41:56;27.30;99.90
19868;DHT22;10096;51.112;6.776;2022-08-01T07:44:24;27.20;99.90
19868;DHT22;10096;51.112;6.776;2022-08-01T07:46:51;26.70;99.90
19868;DHT22;10096;51.112;6.776;2022-08-01T07:49:18;26.60;99.90
19868;DHT22;10096;51.112;6.776;2022-08-01T07:51:47;26.90;99.90
19868;DHT22;10096;51.112;6.776;2022-08-01T07:54:15;26.90;99.90
19868;DHT22;10096;51.112;6.776;2022-08-01T07:56:42;26.90;99.90
19868;DHT22;10096;51.112;6.776;2022-08-01T07:59:12;26.70;99.90
19868;DHT22;10096;51.112;6.776;2022-08-01T08:01:39;27.40;99.90
19868;DHT22;10096;51.112;6.776;2022-08-01T08:04:06;27.80;99.90
19868;DHT22;10096;51.112;6.776;2022-08-01T08:06:34;28.30;99.90
19868;DHT22;10096;51.112;6.776;2022-08-01T08:09:00;28.40;99.90
19868;DHT22;10096;51.112;6.776;2022-08-01T08:11:29;28.40;99.90
19868;DHT22;10096;51.112;6.776;2022-08-01T08:13:56;28.30;99.90
19868;DHT22;10096;51.112;6.776;2022-08-01T08:16:23;28.00;99.90
19868;DHT22;10096;51.112;6.776;2022-08-01T08:18:50;28.00;99.90
19868;DHT22;10096;51.112;6.776;2022-08-01T08:21:17;27.90;99.90
19868;DHT22;10096;51.112;6.776;2022-08-01T08:23:44;28.10;99.90
19868;DHT22;10096;51.112;6.776;2022-08-01T08:26:30;27.90;99.90
19868;DHT22;10096;51.112;6.776;2022-08-01T08:28:57;27.80;99.90
19868;DHT22;10096;51.112;6.776;2022-08-01T08:31:24;27.90;99.90
19868;DHT22;10096;51.112;6.776;2022-08-01T08:33:51;27.70;99.90
19868;DHT22;10096;51.112;6.776;2022-08-01T08:36:18;28.10;99.90
19868;DHT22;10096;51.112;6.776;2022-08-01T08:38:46;27.90;99.90
19868;DHT22;10096;51.112;6.776;2022-08-01T08:41:15;27.90;99.90
19868;DHT22;10096;51.112;6.776;2022-08-01T08:43:43;28.30;99.90
19868;DHT22;10096;51.112;6.776;2022-08-01T08:46:11;29.40;99.90
19868;DHT22;10096;51.112;6.776;2022-08-01T08:48:40;29.60;99.90
19868;DHT22;10096;51.112;6.776;2022-08-01T08:51:10;29.40;99.90
19868;DHT22;10096;51.112;6.776;2022-08-01T08:53:39;28.90;99.90
19868;DHT22;10096;51.112;6.776;2022-08-01T08:56:09;28.50;99.90
19868;DHT22;10096;51.112;6.776;2022-08-01T08:58:37;27.90;99.90
19868;DHT22;10096;51.112;6.776;2022-08-01T09:01:06;27.90;99.90
19868;DHT22;10096;51.112;6.776;2022-08-01T09:03:34;28.60;99.90
19868;DHT22;10096;51.112;6.776;2022-08-01T09:06:02;29.20;99.90
19868;DHT22;10096;51.112;6.776;2022-08-01T09:08:29;29.60;99.90
19868;DHT22;10096;51.112;6.776;2022-08-01T09:10:56;29.80;99.20
19868;DHT22;10096;51.112;6.776;2022-08-01T09:13:23;29.40;95.90
19868;DHT22;10096;51.112;6.776;2022-08-01T09:15:52;28.40;99.90
19868;DHT22;10096;51.112;6.776;2022-08-01T09:18:29;27.80;99.90
19868;DHT22;10096;51.112;6.776;2022-08-01T09:21:11;27.40;99.90
19868;DHT22;10096;51.112;6.776;2022-08-01T09:23:41;27.20;99.90
19868;DHT22;10096;51.112;6.776;2022-08-01T09:26:10;27.30;99.90
19868;DHT22;10096;51.112;6.776;2022-08-01T09:28:38;27.20;99.90
19868;DHT22;10096;51.112;6.776;2022-08-01T09:31:08;27.30;99.90
19868;DHT22;10096;51.112;6.776;2022-08-01T09:33:55;27.40;99.90
19868;DHT22;10096;51.112;6.776;2022-08-01T09:36:25;27.80;99.90
19868;DHT22;10096;51.112;6.776;2022-08-01T09:38:54;27.90;99.90
19868;DHT22;10096;51.112;6.776;2022-08-01T09:41:29;28.10;99.90
19868;DHT22;10096;51.112;6.776;2022-08-01T09:43:56;28.20;99.90
19868;DHT22;10096;51.112;6.776;2022-08-01T09:46:24;28.00;99.90
19868;DHT22;10096;51.112;6.776;2022-08-01T09:48:58;28.00;99.90
19868;DHT22;10096;51.112;6.776;2022-08-01T09:51:30;28.00;99.90
19868;DHT22;10096;51.112;6.776;2022-08-01T09:53:58;28.10;99.90
19868;DHT22;10096;51.112;6.776;2022-08-01T09:56:25;28.20;99.90
19868;DHT22;10096;51.112;6.776;2022-08-01T09:58:54;28.60;99.90
19868;DHT22;10096;51.112;6.776;2022-08-01T10:01:22;28.70;99.90
19868;DHT22;10096;51.112;6.776;2022-08-01T10:04:06;28.70;99.90
19868;DHT22;10096;51.112;6.776;2022-08-01T10:06:33;28.60;99.90
19868;DHT22;10096;51.112;6.776;2022-08-01T10:09:01;28.40;99.90
19868;DHT22;10096;51.112;6.776;2022-08-01T10:11:28;28.40;96.00
19868;DHT22;10096;51.112;6.776;2022-08-01T10:13:58;28.60;94.90
19868;DHT22;10096;51.112;6.776;2022-08-01T10:16:26;28.80;92.90
19868;DHT22;10096;51.112;6.776;2022-08-01T10:18:54;28.80;93.80
19868;DHT22;10096;51.112;6.776;2022-08-01T10:21:27;29.10;73.40
19868;DHT22;10096;51.112;6.776;2022-08-01T10:23:54;29.00;68.40
19868;DHT22;10096;51.112;6.776;2022-08-01T10:26:25;29.00;79.60
19868;DHT22;10096;51.112;6.776;2022-08-01T10:28:53;28.80;52.40
19868;DHT22;10096;51.112;6.776;2022-08-01T10:31:20;28.60;61.40
19868;DHT22;10096;51.112;6.776;2022-08-01T10:33:48;28.60;59.20
19868;DHT22;10096;51.112;6.776;2022-08-01T10:36:18;28.60;59.80
19868;DHT22;10096;51.112;6.776;2022-08-01T10:38:47;28.60;65.60
19868;DHT22;10096;51.112;6.776;2022-08-01T10:41:14;28.60;61.80
19868;DHT22;10096;51.112;6.776;2022-08-01T10:43:43;28.80;59.90
19868;DHT22;10096;51.112;6.776;2022-08-01T10:46:10;28.70;60.50
19868;DHT22;10096;51.112;6.776;2022-08-01T10:48:43;29.10;51.10
19868;DHT22;10096;51.112;6.776;2022-08-01T10:51:12;29.30;30.00
19868;DHT22;10096;51.112;6.776;2022-08-01T10:53:48;29.00;36.40
19868;DHT22;10096;51.112;6.776;2022-08-01T10:56:20;29.10;26.50
19868;DHT22;10096;51.112;6.776;2022-08-01T10:58:48;29.30;22.40
19868;DHT22;10096;51.112;6.776;2022-08-01T11:01:19;29.10;19.60
19868;DHT22;10096;51.112;6.776;2022-08-01T11:04:01;29.30;17.20
19868;DHT22;10096;51.112;6.776;2022-08-01T11:06:42;29.40;9.90
19868;DHT22;10096;51.112;6.776;2022-08-01T11:09:29;29.60;4.80
19868;DHT22;10096;51.112;6.776;2022-08-01T11:12:01;29.20;14.10
19868;DHT22;10096;51.112;6.776;2022-08-01T11:14:30;28.70;20.40
19868;DHT22;10096;51.112;6.776;2022-08-01T11:17:29;28.50;31.00
19868;DHT22;10096;51.112;6.776;2022-08-01T11:20:08;27.90;30.50
19868;DHT22;10096;51.112;6.776;2022-08-01T11:26:21;28.00;18.30
19868;DHT22;10096;51.112;6.776;2022-08-01T11:29:14;28.00;17.00
19868;DHT22;10096;51.112;6.776;2022-08-01T11:31:41;28.30;19.50
19868;DHT22;10096;51.112;6.776;2022-08-01T11:34:09;28.40;6.00
19868;DHT22;10096;51.112;6.776;2022-08-01T11:36:36;28.50;13.20
19868;DHT22;10096;51.112;6.776;2022-08-01T11:39:13;28.40;8.90
19868;DHT22;10096;51.112;6.776;2022-08-01T11:41:43;28.30;13.90
19868;DHT22;10096;51.112;6.776;2022-08-01T11:44:14;28.60;11.70
19868;DHT22;10096;51.112;6.776;2022-08-01T11:46:52;28.80;11.70
19868;DHT22;10096;51.112;6.776;2022-08-01T11:49:26;29.00;9.40
19868;DHT22;10096;51.112;6.776;2022-08-01T11:52:06;29.20;1.00
19868;DHT22;10096;51.112;6.776;2022-08-01T11:54:34;29.20;1.00
19868;DHT22;10096;51.112;6.776;2022-08-01T11:57:08;29.30;1.00
19868;DHT22;10096;51.112;6.776;2022-08-01T11:59:37;29.20;1.00
19868;DHT22;10096;51.112;6.776;2022-08-01T12:02:15;29.30;1.00
19868;DHT22;10096;51.112;6.776;2022-08-01T12:04:54;29.60;1.00
19868;DHT22;10096;51.112;6.776;2022-08-01T12:07:22;29.60;1.00
19868;DHT22;10096;51.112;6.776;2022-08-01T12:09:57;29.60;1.00
19868;DHT22;10096;51.112;6.776;2022-08-01T12:12:33;29.60;1.00
19868;DHT22;10096;51.112;6.776;2022-08-01T12:15:15;29.40;1.00
19868;DHT22;10096;51.112;6.776;2022-08-01T12:17:44;29.10;1.00
19868;DHT22;10096;51.112;6.776;2022-08-01T12:20:13;28.90;1.00
19868;DHT22;10096;51.112;6.776;2022-08-01T12:22:41;29.00;1.00
19868;DHT22;10096;51.112;6.776;2022-08-01T12:25:10;29.10;1.00
19868;DHT22;10096;51.112;6.776;2022-08-01T12:27:40;29.30;1.00
19868;DHT22;10096;51.112;6.776;2022-08-01T12:30:09;29.40;1.00
19868;DHT22;10096;51.112;6.776;2022-08-01T12:32:38;29.40;1.00
19868;DHT22;10096;51.112;6.776;2022-08-01T12:35:07;29.30;1.00
19868;DHT22;10096;51.112;6.776;2022-08-01T12:37:36;29.20;1.00
19868;DHT22;10096;51.112;6.776;2022-08-01T12:40:13;29.50;1.00
19868;DHT22;10096;51.112;6.776;2022-08-01T12:42:44;29.50;1.00
19868;DHT22;10096;51.112;6.776;2022-08-01T12:45:14;29.60;1.00
19868;DHT22;10096;51.112;6.776;2022-08-01T12:47:42;29.50;1.00
19868;DHT22;10096;51.112;6.776;2022-08-01T12:50:13;29.00;1.00
19868;DHT22;10096;51.112;6.776;2022-08-01T12:52:41;29.10;1.00
19868;DHT22;10096;51.112;6.776;2022-08-01T12:55:17;29.00;1.00
19868;DHT22;10096;51.112;6.776;2022-08-01T12:57:48;29.00;1.00
19868;DHT22;10096;51.112;6.776;2022-08-01T13:00:20;29.20;1.00
19868;DHT22;10096;51.112;6.776;2022-08-01T13:02:49;29.30;1.00
19868;DHT22;10096;51.112;6.776;2022-08-01T13:05:17;29.40;1.00
19868;DHT22;10096;51.112;6.776;2022-08-01T13:07:46;29.20;1.00
19868;DHT22;10096;51.112;6.776;2022-08-01T13:10:25;29.40;1.00
19868;DHT22;10096;51.112;6.776;2022-08-01T13:12:55;29.10;1.00
19868;DHT22;10096;51.112;6.776;2022-08-01T13:15:28;29.10;1.00
19868;DHT22;10096;51.112;6.776;2022-08-01T13:17:58;28.80;1.00
19868;DHT22;10096;51.112;6.776;2022-08-01T13:20:29;28.60;1.00
19868;DHT22;10096;51.112;6.776;2022-08-01T13:23:13;28.90;1.00
19868;DHT22;10096;51.112;6.776;2022-08-01T13:25:48;29.20;1.00
19868;DHT22;10096;51.112;6.776;2022-08-01T13:28:19;29.10;1.00
19868;DHT22;10096;51.112;6.776;2022-08-01T13:30:55;29.10;1.00
19868;DHT22;10096;51.112;6.776;2022-08-01T13:33:22;28.90;1.00
19868;DHT22;10096;51.112;6.776;2022-08-01T13:35:51;29.40;1.00
19868;DHT22;10096;51.112;6.776;2022-08-01T13:38:19;29.70;1.00
19868;DHT22;10096;51.112;6.776;2022-08-01T13:41:07;29.50;1.00
19868;DHT22;10096;51.112;6.776;2022-08-01T13:43:36;29.40;1.00
19868;DHT22;10096;51.112;6.776;2022-08-01T13:46:03;29.00;1.00
19868;DHT22;10096;51.112;6.776;2022-08-01T13:48:31;28.90;1.00
19868;DHT22;10096;51.112;6.776;2022-08-01T13:50:59;28.60;1.00
19868;DHT22;10096;51.112;6.776;2022-08-01T13:53:29;28.90;1.00
19868;DHT22;10096;51.112;6.776;2022-08-01T13:55:56;29.10;1.00
19868;DHT22;10096;51.112;6.776;2022-08-01T13:58:24;28.90;1.00
19868;DHT22;10096;51.112;6.776;2022-08-01T14:00:52;28.90;1.00
19868;DHT22;10096;51.112;6.776;2022-08-01T14:03:20;28.80;1.00
19868;DHT22;10096;51.112;6.776;2022-08-01T14:05:47;29.00;1.00
19868;DHT22;10096;51.112;6.776;2022-08-01T14:08:14;29.00;1.00
19868;DHT22;10096;51.112;6.776;2022-08-01T14:10:41;28.90;1.00
19868;DHT22;10096;51.112;6.776;2022-08-01T14:13:09;28.60;1.00
19868;DHT22;10096;51.112;6.776;2022-08-01T14:15:36;28.70;1.00
19868;DHT22;10096;51.112;6.776;2022-08-01T14:18:07;29.20;1.00
19868;DHT22;10096;51.112;6.776;2022-08-01T14:20:38;29.00;1.00
19868;DHT22;10096;51.112;6.776;2022-08-01T14:23:07;28.70;1.00
19868;DHT22;10096;51.112;6.776;2022-08-01T14:25:36;29.20;1.00
19868;DHT22;10096;51.112;6.776;2022-08-01T14:28:04;28.90;1.00
19868;DHT22;10096;51.112;6.776;2022-08-01T14:30:33;29.50;1.00
19868;DHT22;10096;51.112;6.776;2022-08-01T14:33:01;29.30;1.00
19868;DHT22;10096;51.112;6.776;2022-08-01T14:35:30;29.00;1.00
19868;DHT22;10096;51.112;6.776;2022-08-01T14:37:57;29.10;1.00
19868;DHT22;10096;51.112;6.776;2022-08-01T14:40:27;28.60;1.00
19868;DHT22;10096;51.112;6.776;2022-08-01T14:42:57;28.20;1.00
19868;DHT22;10096;51.112;6.776;2022-08-01T14:45:24;27.80;1.00
19868;DHT22;10096;51.112;6.776;2022-08-01T14:47:51;27.60;1.00
19868;DHT22;10096;51.112;6.776;2022-08-01T14:50:18;27.70;1.00
19868;DHT22;10096;51.112;6.776;2022-08-01T14:52:47;27.60;1.00
19868;DHT22;10096;51.112;6.776;2022-08-01T14:55:14;27.80;1.00
19868;DHT22;10096;51.112;6.776;2022-08-01T14:57:41;27.80;1.00
19868;DHT22;10096;51.112;6.776;2022-08-01T15:00:10;27.90;1.00
19868;DHT22;10096;51.112;6.776;2022-08-01T15:02:38;27.60;1.00
19868;DHT22;10096;51.112;6.776;2022-08-01T15:05:07;28.00;1.00
19868;DHT22;10096;51.112;6.776;2022-08-01T15:07:34;28.10;1.00
19868;DHT22;10096;51.112;6.776;2022-08-01T15:10:04;27.90;1.00
19868;DHT22;10096;51.112;6.776;2022-08-01T15:12:45;27.50;1.00
19868;DHT22;10096;51.112;6.776;2022-08-01T15:15:12;27.70;1.00
19868;DHT22;10096;51.112;6.776;2022-08-01T15:17:40;27.70;1.00
19868;DHT22;10096;51.112;6.776;2022-08-01T15:20:08;27.90;1.00
19868;DHT22;10096;51.112;6.776;2022-08-01T15:22:35;27.60;1.00
19868;DHT22;10096;51.112;6.776;2022-08-01T15:25:05;27.60;1.00
19868;DHT22;10096;51.112;6.776;2022-08-01T15:27:32;27.70;1.00
19868;DHT22;10096;51.112;6.776;2022-08-01T15:29:59;27.80;1.00
19868;DHT22;10096;51.112;6.776;2022-08-01T15:32:26;27.80;1.00
19868;DHT22;10096;51.112;6.776;2022-08-01T15:34:54;28.00;1.00
19868;DHT22;10096;51.112;6.776;2022-08-01T15:37:21;27.70;1.00
19868;DHT22;10096;51.112;6.776;2022-08-01T15:39:49;27.90;1.00
19868;DHT22;10096;51.112;6.776;2022-08-01T15:42:18;27.80;1.00
19868;DHT22;10096;51.112;6.776;2022-08-01T15:44:46;27.70;1.00
19868;DHT22;10096;51.112;6.776;2022-08-01T15:47:13;27.70;1.00
19868;DHT22;10096;51.112;6.776;2022-08-01T15:49:42;27.30;1.00
19868;DHT22;10096;51.112;6.776;2022-08-01T15:52:09;27.30;1.00
19868;DHT22;10096;51.112;6.776;2022-08-01T15:54:36;27.10;1.00
19868;DHT22;10096;51.112;6.776;2022-08-01T15:57:05;27.50;1.00
19868;DHT22;10096;51.112;6.776;2022-08-01T15:59:34;27.40;1.00